createdAt,value
2016-11-20T00:00:30.977Z,26.03
2016-11-20T00:01:30.933Z,26.03
2016-11-20T00:02:30.626Z,26.12
2016-11-20T00:03:31.047Z,25.93
2016-11-20T00:04:30.949Z,25.54
2016-11-20T00:05:30.647Z,25.63
2016-11-20T00:06:30.651Z,25.63
2016-11-20T00:07:30.667Z,26.03
2016-11-20T00:08:30.670Z,25.93
2016-11-20T00:09:30.720Z,25.63
2016-11-20T00:10:30.680Z,25.63
2016-11-20T00:11:30.735Z,26.03
2016-11-20T00:12:31.005Z,25.63
2016-11-20T00:13:30.699Z,25.54
2016-11-20T00:14:31.019Z,25.63
2016-11-20T00:15:31.029Z,25.62
2016-11-20T00:16:31.084Z,25.44
2016-11-20T00:17:30.774Z,25.73
2016-11-20T00:18:30.734Z,25.44
2016-11-20T00:19:31.046Z,25.63
2016-11-20T00:20:30.749Z,25.54
2016-11-20T00:21:30.756Z,25.44
2016-11-20T00:22:31.074Z,25.44
2016-11-20T00:23:30.820Z,25.44
2016-11-20T00:24:31.138Z,25.54
2016-11-20T00:25:31.145Z,25.54
2016-11-20T00:26:31.201Z,25.54
2016-11-20T00:27:30.796Z,25.35
2016-11-20T00:28:30.962Z,25.25
2016-11-20T00:29:30.809Z,25.35
2016-11-20T00:30:31.271Z,25.44
2016-11-20T00:31:31.135Z,25.25
2016-11-20T00:32:31.143Z,25.35
2016-11-20T00:33:31.199Z,25.35
2016-11-20T00:34:31.158Z,25.35
2016-11-20T00:35:30.849Z,25.35
2016-11-20T00:36:30.856Z,25.44
2016-11-20T00:37:30.870Z,25.35
2016-11-20T00:38:31.182Z,25.35
2016-11-20T00:39:31.191Z,25.25
2016-11-20T00:40:31.195Z,25.15
2016-11-20T00:41:31.941Z,25.35
2016-11-20T00:42:31.210Z,25.25
2016-11-20T00:43:31.317Z,25.35
2016-11-20T00:44:31.221Z,25.44
2016-11-20T00:45:31.228Z,25.25
2016-11-20T00:46:31.237Z,25.15
2016-11-20T00:47:30.980Z,25.15
2016-11-20T00:48:30.940Z,25.44
2016-11-20T00:49:30.945Z,25.25
2016-11-20T00:50:31.312Z,25.15
2016-11-20T00:51:31.271Z,25.35
2016-11-20T00:52:31.276Z,25.25
2016-11-20T00:53:31.282Z,25.25
2016-11-20T00:54:31.578Z,25.15
2016-11-20T00:55:31.298Z,25.15
2016-11-20T00:56:30.990Z,25.15
2016-11-20T00:57:31.360Z,25.25
2016-11-20T00:58:31.006Z,25.44
2016-11-20T00:59:31.325Z,25.15
2016-11-20T01:00:31.020Z,25.44
2016-11-20T01:01:31.023Z,25.14
2016-11-20T01:02:31.080Z,25.44
2016-11-20T01:03:31.038Z,25.35
2016-11-20T01:04:31.357Z,25.35
2016-11-20T01:05:32.215Z,25.15
2016-11-20T01:06:31.059Z,25.14
2016-11-20T01:07:31.376Z,25.14
2016-11-20T01:08:31.386Z,25.35
2016-11-20T01:09:31.391Z,25.25
2016-11-20T01:10:31.182Z,25.34
2016-11-20T01:11:31.402Z,25.15
2016-11-20T01:12:31.097Z,25.34
2016-11-20T01:13:31.418Z,25.15
2016-11-20T01:14:31.425Z,25.35
2016-11-20T01:15:31.479Z,25.15
2016-11-20T01:16:31.125Z,25.25
2016-11-20T01:17:31.130Z,25.25
2016-11-20T01:18:31.451Z,25.35
2016-11-20T01:19:31.457Z,25.25
2016-11-20T01:20:31.200Z,25.44
2016-11-20T01:21:31.472Z,25.44
2016-11-20T01:22:31.533Z,25.35
2016-11-20T01:23:31.170Z,25.54
2016-11-20T01:24:31.179Z,25.35
2016-11-20T01:25:31.750Z,25.35
2016-11-20T01:26:31.505Z,25.54
2016-11-20T01:27:31.198Z,25.44
2016-11-20T01:28:31.520Z,25.44
2016-11-20T01:29:31.527Z,25.44
2016-11-20T01:30:31.221Z,25.44
2016-11-20T01:31:31.229Z,25.54
2016-11-20T01:32:31.567Z,25.35
2016-11-20T01:33:31.602Z,25.54
2016-11-20T01:34:31.560Z,25.34
2016-11-20T01:35:31.565Z,25.04
2016-11-20T01:36:31.718Z,25.24
2016-11-20T01:37:31.632Z,25.44
2016-11-20T01:38:31.587Z,25.34
2016-11-20T01:39:31.594Z,25.24
2016-11-20T01:40:31.601Z,25.43
2016-11-20T01:41:31.607Z,25.25
2016-11-20T01:42:31.402Z,25.34
2016-11-20T01:43:31.624Z,25.34
2016-11-20T01:44:31.630Z,25.14
2016-11-20T01:45:31.322Z,25.24
2016-11-20T01:46:31.328Z,25.14
2016-11-20T01:47:32.450Z,25.24
2016-11-20T01:48:31.343Z,25.04
2016-11-20T01:49:31.752Z,25.34
2016-11-20T01:50:31.669Z,25.43
2016-11-20T01:51:31.674Z,25.15
2016-11-20T01:52:31.684Z,25.43
2016-11-20T01:53:31.378Z,25.34
2016-11-20T01:54:31.433Z,25.34
2016-11-20T01:55:31.392Z,25.14
2016-11-20T01:56:31.713Z,25.14
2016-11-20T01:57:31.716Z,25.14
2016-11-20T01:58:32.516Z,25.24
2016-11-20T01:59:31.422Z,25.14
2016-11-20T02:00:32.320Z,25.14
2016-11-20T02:01:31.742Z,25.34
2016-11-20T02:02:31.750Z,25.43
2016-11-20T02:03:31.444Z,25.24
2016-11-20T02:04:31.452Z,25.24
2016-11-20T02:05:31.772Z,25.34
2016-11-20T02:06:31.466Z,25.14
2016-11-20T02:07:31.522Z,25.43
2016-11-20T02:08:31.480Z,25.14
2016-11-20T02:09:31.850Z,25.43
2016-11-20T02:10:31.856Z,25.24
2016-11-20T02:11:31.499Z,25.43
2016-11-20T02:12:31.820Z,25.43
2016-11-20T02:13:31.874Z,25.14
2016-11-20T02:14:31.569Z,25.14
2016-11-20T02:15:31.531Z,25.04
2016-11-20T02:16:31.847Z,25.14
2016-11-20T02:17:31.553Z,25.14
2016-11-20T02:18:31.862Z,25.04
2016-11-20T02:19:31.916Z,25.24
2016-11-20T02:20:31.709Z,25.14
2016-11-20T02:21:31.933Z,25.14
2016-11-20T02:22:31.939Z,25.34
2016-11-20T02:23:31.631Z,25.24
2016-11-20T02:24:31.638Z,25.24
2016-11-20T02:25:31.958Z,25.14
2016-11-20T02:26:31.601Z,25.43
2016-11-20T02:27:31.609Z,25.34
2016-11-20T02:28:31.977Z,25.14
2016-11-20T02:29:31.934Z,25.14
2016-11-20T02:30:31.730Z,25.34
2016-11-20T02:31:31.998Z,25.24
2016-11-20T02:32:31.956Z,25.34
2016-11-20T02:33:31.965Z,25.24
2016-11-20T02:34:31.968Z,25.24
2016-11-20T02:35:31.977Z,25.24
2016-11-20T02:36:31.967Z,25.14
2016-11-20T02:37:32.038Z,25.34
2016-11-20T02:38:31.685Z,25.24
2016-11-20T02:39:31.691Z,25.14
2016-11-20T02:40:31.698Z,25.24
2016-11-20T02:41:32.066Z,25.34
2016-11-20T02:42:32.481Z,25.34
2016-11-20T02:43:32.030Z,25.24
2016-11-20T02:44:31.724Z,25.24
2016-11-20T02:45:32.042Z,25.14
2016-11-20T02:46:32.050Z,25.14
2016-11-20T02:47:32.105Z,25.14
2016-11-20T02:48:31.802Z,25.34
2016-11-20T02:49:31.806Z,25.14
2016-11-20T02:50:31.762Z,25.14
2016-11-20T02:51:32.089Z,25.34
2016-11-20T02:52:31.827Z,25.14
2016-11-20T02:53:32.936Z,25.14
2016-11-20T02:54:32.101Z,25.24
2016-11-20T02:55:32.148Z,25.24
2016-11-20T02:56:32.116Z,25.34
2016-11-20T02:57:32.122Z,25.34
2016-11-20T02:58:32.181Z,25.52
2016-11-20T02:59:31.825Z,25.52
2016-11-20T03:00:32.196Z,25.43
2016-11-20T03:01:32.154Z,25.24
2016-11-20T03:02:31.843Z,25.43
2016-11-20T03:03:31.901Z,25.24
2016-11-20T03:04:32.221Z,25.14
2016-11-20T03:05:31.863Z,25.24
2016-11-20T03:06:33.032Z,25.24
2016-11-20T03:07:32.195Z,25.14
2016-11-20T03:08:31.883Z,25.14
2016-11-20T03:09:32.251Z,25.14
2016-11-20T03:10:31.900Z,25.34
2016-11-20T03:11:32.222Z,25.43
2016-11-20T03:12:31.913Z,25.34
2016-11-20T03:13:32.280Z,25.24
2016-11-20T03:14:32.288Z,25.43
2016-11-20T03:15:32.244Z,25.24
2016-11-20T03:16:31.972Z,25.14
2016-11-20T03:17:31.998Z,25.34
2016-11-20T03:18:32.002Z,25.34
2016-11-20T03:19:32.271Z,25.14
2016-11-20T03:20:31.972Z,25.43
2016-11-20T03:21:31.973Z,25.04
2016-11-20T03:22:32.297Z,25.43
2016-11-20T03:23:31.987Z,25.24
2016-11-20T03:24:32.041Z,25.34
2016-11-20T03:25:31.999Z,25.43
2016-11-20T03:26:32.416Z,25.34
2016-11-20T03:27:32.375Z,25.34
2016-11-20T03:28:32.333Z,25.24
2016-11-20T03:29:32.076Z,25.34
2016-11-20T03:30:32.345Z,25.24
2016-11-20T03:31:32.353Z,25.43
2016-11-20T03:32:32.049Z,25.34
2016-11-20T03:33:32.414Z,25.43
2016-11-20T03:34:32.369Z,25.34
2016-11-20T03:35:32.377Z,25.24
2016-11-20T03:36:32.073Z,25.14
2016-11-20T03:37:33.095Z,25.24
2016-11-20T03:38:32.400Z,25.14
2016-11-20T03:39:32.393Z,25.43
2016-11-20T03:40:32.411Z,25.24
2016-11-20T03:41:32.157Z,25.34
2016-11-20T03:42:32.116Z,25.14
2016-11-20T03:43:32.429Z,25.24
2016-11-20T03:44:32.124Z,25.34
2016-11-20T03:45:32.496Z,25.34
2016-11-20T03:46:32.452Z,25.24
2016-11-20T03:47:32.457Z,25.34
2016-11-20T03:48:33.355Z,25.24
2016-11-20T03:49:32.158Z,25.34
2016-11-20T03:50:33.181Z,25.43
2016-11-20T03:51:32.175Z,25.24
2016-11-20T03:52:32.495Z,25.43
2016-11-20T03:53:32.237Z,25.04
2016-11-20T03:54:32.504Z,25.34
2016-11-20T03:55:32.200Z,25.34
2016-11-20T03:56:32.205Z,25.43
2016-11-20T03:57:32.725Z,25.24
2016-11-20T03:58:32.533Z,25.34
2016-11-20T03:59:32.542Z,25.34
2016-11-20T04:00:32.544Z,25.52
2016-11-20T04:01:32.238Z,25.43
2016-11-20T04:02:32.558Z,25.34
2016-11-20T04:03:32.251Z,25.43
2016-11-20T04:04:32.357Z,25.43
2016-11-20T04:05:32.576Z,25.43
2016-11-20T04:06:32.584Z,25.43
2016-11-20T04:07:32.338Z,25.34
2016-11-20T04:08:32.947Z,25.34
2016-11-20T04:09:32.343Z,25.34
2016-11-20T04:10:32.596Z,25.34
2016-11-20T04:11:32.617Z,25.14
2016-11-20T04:12:32.672Z,25.34
2016-11-20T04:13:32.318Z,25.34
2016-11-20T04:14:32.687Z,25.14
2016-11-20T04:15:32.328Z,25.43
2016-11-20T04:16:32.337Z,25.43
2016-11-20T04:17:32.708Z,25.43
2016-11-20T04:18:32.662Z,25.34
2016-11-20T04:19:33.511Z,25.34
2016-11-20T04:20:32.775Z,25.34
2016-11-20T04:21:33.271Z,25.34
2016-11-20T04:22:32.374Z,25.34
2016-11-20T04:23:32.696Z,25.34
2016-11-20T04:24:32.390Z,25.34
2016-11-20T04:25:32.394Z,25.34
2016-11-20T04:26:32.716Z,25.14
2016-11-20T04:27:32.408Z,25.34
2016-11-20T04:28:32.729Z,25.34
2016-11-20T04:29:32.471Z,25.24
2016-11-20T04:30:33.718Z,25.24
2016-11-20T04:31:32.798Z,25.04
2016-11-20T04:32:33.493Z,25.24
2016-11-20T04:33:32.761Z,25.32
2016-11-20T04:34:32.766Z,25.34
2016-11-20T04:35:32.462Z,25.34
2016-11-20T04:36:32.833Z,25.34
2016-11-20T04:37:32.838Z,25.34
2016-11-20T04:38:32.481Z,25.34
2016-11-20T04:39:32.487Z,25.32
2016-11-20T04:40:32.493Z,25.14
2016-11-20T04:41:32.499Z,25.14
2016-11-20T04:42:32.561Z,25.32
2016-11-20T04:43:32.881Z,25.14
2016-11-20T04:44:47.398Z,25.14
2016-11-20T04:45:32.893Z,25.23
2016-11-20T04:46:32.533Z,25.23
2016-11-20T04:47:32.853Z,25.13
2016-11-20T04:48:32.867Z,25.34
2016-11-20T04:49:32.867Z,25.24
2016-11-20T04:50:32.558Z,25.14
2016-11-20T04:51:32.878Z,25.23
2016-11-20T04:52:32.942Z,25.13
2016-11-20T04:53:32.894Z,25.14
2016-11-20T04:54:32.623Z,25.23
2016-11-20T04:55:32.905Z,25.23
2016-11-20T04:56:32.602Z,25.14
2016-11-20T04:57:32.918Z,25.43
2016-11-20T04:58:32.928Z,25.42
2016-11-20T04:59:32.930Z,25.32
2016-11-20T05:00:32.937Z,25.32
2016-11-20T05:01:32.945Z,25.32
2016-11-20T05:02:32.637Z,25.13
2016-11-20T05:03:33.494Z,25.03
2016-11-20T05:04:32.966Z,25.13
2016-11-20T05:05:32.969Z,25.23
2016-11-20T05:06:32.665Z,25.32
2016-11-20T05:07:32.670Z,25.32
2016-11-20T05:08:32.992Z,25.13
2016-11-20T05:09:32.996Z,25.34
2016-11-20T05:10:33.001Z,25.23
2016-11-20T05:11:33.059Z,25.13
2016-11-20T05:12:33.013Z,25.32
2016-11-20T05:13:32.763Z,25.32
2016-11-20T05:14:33.929Z,25.23
2016-11-20T05:15:33.035Z,25.42
2016-11-20T05:16:33.280Z,25.42
2016-11-20T05:17:33.048Z,25.61
2016-11-20T05:18:32.744Z,25.51
2016-11-20T05:19:33.059Z,25.71
2016-11-20T05:20:32.807Z,25.42
2016-11-20T05:21:33.073Z,25.51
2016-11-20T05:22:32.768Z,25.42
2016-11-20T05:23:33.087Z,25.51
2016-11-20T05:24:33.091Z,25.61
2016-11-20T05:25:32.793Z,25.61
2016-11-20T05:26:32.798Z,25.71
2016-11-20T05:27:33.564Z,25.61
2016-11-20T05:28:33.119Z,25.61
2016-11-20T05:29:32.817Z,25.61
2016-11-20T05:30:33.134Z,25.61
2016-11-20T05:31:33.175Z,25.51
2016-11-20T05:32:32.831Z,25.42
2016-11-20T05:33:33.181Z,25.71
2016-11-20T05:34:32.844Z,25.61
2016-11-20T05:35:32.851Z,25.51
2016-11-20T05:36:32.858Z,25.61
2016-11-20T05:37:32.862Z,25.9
2016-11-20T05:38:34.285Z,25.71
2016-11-20T05:39:33.189Z,25.61
2016-11-20T05:40:33.197Z,25.61
2016-11-20T05:41:33.206Z,25.61
2016-11-20T05:42:33.209Z,25.61
2016-11-20T05:43:32.905Z,25.32
2016-11-20T05:44:32.912Z,25.51
2016-11-20T05:45:33.280Z,25.71
2016-11-20T05:46:32.923Z,25.98
2016-11-20T05:47:33.294Z,25.71
2016-11-20T05:48:32.936Z,25.9
2016-11-20T05:49:33.043Z,25.99
2016-11-20T05:50:32.947Z,25.71
2016-11-20T05:51:32.956Z,25.99
2016-11-20T05:52:33.012Z,25.99
2016-11-20T05:53:33.281Z,25.99
2016-11-20T05:54:33.338Z,25.71
2016-11-20T05:55:33.299Z,25.6
2016-11-20T05:56:33.308Z,25.61
2016-11-20T05:57:33.306Z,25.6
2016-11-20T05:58:33.105Z,25.9
2016-11-20T05:59:33.321Z,25.99
2016-11-20T06:00:33.338Z,25.99
2016-11-20T06:01:33.333Z,25.89
2016-11-20T06:02:33.025Z,25.9
2016-11-20T06:03:33.344Z,25.89
2016-11-20T06:04:33.040Z,25.89
2016-11-20T06:05:33.411Z,25.9
2016-11-20T06:06:33.103Z,25.98
2016-11-20T06:07:33.372Z,25.89
2016-11-20T06:08:33.380Z,25.99
2016-11-20T06:09:33.842Z,25.98
2016-11-20T06:10:33.443Z,25.9
2016-11-20T06:11:33.400Z,25.98
2016-11-20T06:12:33.407Z,25.89
2016-11-20T06:13:33.099Z,25.99
2016-11-20T06:14:33.420Z,25.89
2016-11-20T06:15:33.115Z,25.81
2016-11-20T06:16:33.121Z,25.9
2016-11-20T06:17:33.438Z,25.89
2016-11-20T06:18:33.133Z,25.98
2016-11-20T06:19:33.196Z,25.99
2016-11-20T06:20:34.576Z,25.79
2016-11-20T06:21:33.467Z,26.08
2016-11-20T06:22:34.025Z,25.98
2016-11-20T06:23:33.223Z,25.6
2016-11-20T06:24:33.484Z,25.99
2016-11-20T06:25:33.230Z,25.98
2016-11-20T06:26:33.507Z,25.89
2016-11-20T06:27:33.193Z,25.98
2016-11-20T06:28:33.202Z,25.98
2016-11-20T06:29:33.518Z,25.89
2016-11-20T06:30:33.212Z,25.89
2016-11-20T06:31:33.223Z,25.79
2016-11-20T06:32:33.541Z,25.98
2016-11-20T06:33:33.234Z,25.71
2016-11-20T06:34:33.238Z,25.89
2016-11-20T06:35:33.610Z,25.79
2016-11-20T06:36:33.566Z,25.98
2016-11-20T06:37:33.573Z,25.79
2016-11-20T06:38:33.569Z,25.89
2016-11-20T06:39:33.272Z,25.98
2016-11-20T06:40:33.596Z,25.89
2016-11-20T06:41:33.600Z,25.98
2016-11-20T06:42:33.643Z,25.98
2016-11-20T06:43:33.301Z,25.7
2016-11-20T06:44:33.618Z,25.79
2016-11-20T06:45:33.313Z,25.7
2016-11-20T06:46:33.320Z,25.79
2016-11-20T06:47:33.639Z,26.08
2016-11-20T06:48:33.335Z,25.89
2016-11-20T06:49:33.654Z,25.79
2016-11-20T06:50:33.709Z,26.18
2016-11-20T06:51:33.664Z,26.18
2016-11-20T06:52:33.674Z,26.08
2016-11-20T06:53:34.530Z,25.79
2016-11-20T06:54:33.687Z,25.98
2016-11-20T06:55:33.744Z,26.18
2016-11-20T06:56:33.389Z,25.89
2016-11-20T06:57:33.394Z,26.18
2016-11-20T06:58:33.777Z,25.7
2016-11-20T06:59:33.718Z,26.08
2016-11-20T07:00:33.412Z,25.89
2016-11-20T07:01:33.470Z,25.98
2016-11-20T07:02:33.424Z,25.79
2016-11-20T07:03:33.845Z,25.98
2016-11-20T07:04:33.442Z,26.08
2016-11-20T07:05:33.761Z,25.98
2016-11-20T07:06:34.231Z,25.98
2016-11-20T07:07:33.821Z,25.98
2016-11-20T07:08:33.778Z,26.08
2016-11-20T07:09:33.835Z,25.89
2016-11-20T07:10:33.790Z,25.6
2016-11-20T07:11:33.802Z,25.79
2016-11-20T07:12:33.543Z,25.98
2016-11-20T07:13:33.863Z,25.79
2016-11-20T07:14:33.503Z,25.79
2016-11-20T07:15:33.512Z,26.08
2016-11-20T07:16:33.569Z,25.79
2016-11-20T07:17:34.888Z,25.6
2016-11-20T07:18:33.845Z,25.7
2016-11-20T07:19:33.592Z,25.79
2016-11-20T07:20:33.862Z,25.79
2016-11-20T07:21:33.552Z,25.98
2016-11-20T07:22:33.873Z,26.08
2016-11-20T07:23:33.877Z,25.79
2016-11-20T07:24:33.883Z,26.08
2016-11-20T07:25:33.583Z,25.6
2016-11-20T07:26:33.635Z,25.98
2016-11-20T07:27:33.593Z,25.89
2016-11-20T07:28:33.963Z,26.08
2016-11-20T07:29:33.915Z,26.08
2016-11-20T07:30:33.921Z,26.08
2016-11-20T07:31:33.667Z,25.89
2016-11-20T07:32:33.939Z,25.79
2016-11-20T07:33:33.944Z,25.7
2016-11-20T07:34:33.960Z,25.89
2016-11-20T07:35:34.057Z,25.7
2016-11-20T07:36:33.965Z,25.79
2016-11-20T07:37:34.103Z,25.79
2016-11-20T07:38:34.028Z,25.79
2016-11-20T07:39:34.032Z,25.79
2016-11-20T07:40:33.990Z,25.79
2016-11-20T07:41:33.683Z,25.87
2016-11-20T07:42:33.693Z,25.79
2016-11-20T07:43:34.010Z,25.79
2016-11-20T07:44:34.066Z,25.78
2016-11-20T07:45:34.028Z,25.98
2016-11-20T07:46:33.718Z,26.18
2016-11-20T07:47:34.089Z,26.18
2016-11-20T07:48:34.699Z,26.08
2016-11-20T07:49:34.102Z,25.98
2016-11-20T07:50:34.108Z,26.08
2016-11-20T07:51:33.848Z,26.08
2016-11-20T07:52:34.068Z,25.89
2016-11-20T07:53:33.762Z,25.98
2016-11-20T07:54:33.770Z,25.78
2016-11-20T07:55:33.781Z,25.97
2016-11-20T07:56:33.833Z,25.97
2016-11-20T07:57:34.401Z,25.97
2016-11-20T07:58:34.107Z,25.97
2016-11-20T07:59:35.119Z,25.98
2016-11-20T08:00:34.171Z,25.97
2016-11-20T08:01:34.480Z,25.97
2016-11-20T08:02:34.137Z,25.97
2016-11-20T08:03:34.141Z,25.97
2016-11-20T08:04:33.836Z,26.07
2016-11-20T08:05:33.843Z,26.07
2016-11-20T08:06:33.849Z,25.97
2016-11-20T08:07:34.169Z,25.97
2016-11-20T08:08:33.911Z,25.87
2016-11-20T08:09:33.867Z,25.97
2016-11-20T08:10:33.879Z,25.97
2016-11-20T08:11:34.243Z,25.97
2016-11-20T08:12:35.201Z,25.89
2016-11-20T08:13:34.206Z,25.97
2016-11-20T08:14:33.902Z,25.87
2016-11-20T08:15:33.905Z,25.78
2016-11-20T08:16:34.275Z,25.78
2016-11-20T08:17:34.232Z,25.97
2016-11-20T08:18:34.228Z,25.89
2016-11-20T08:19:34.346Z,25.97
2016-11-20T08:20:34.254Z,25.78
2016-11-20T08:21:33.947Z,25.78
2016-11-20T08:22:34.263Z,25.97
2016-11-20T08:23:35.471Z,25.98
2016-11-20T08:24:34.277Z,25.79
2016-11-20T08:25:33.971Z,25.79
2016-11-20T08:26:34.291Z,25.79
2016-11-20T08:27:34.297Z,25.79
2016-11-20T08:28:34.305Z,25.98
2016-11-20T08:29:34.311Z,25.78
2016-11-20T08:30:34.867Z,25.79
2016-11-20T08:31:34.372Z,25.7
2016-11-20T08:32:34.329Z,25.6
2016-11-20T08:33:34.072Z,25.6
2016-11-20T08:34:34.391Z,25.6
2016-11-20T08:35:34.350Z,25.89
2016-11-20T08:36:34.044Z,25.7
2016-11-20T08:37:34.363Z,25.79
2016-11-20T08:38:34.372Z,25.79
2016-11-20T08:39:34.378Z,25.6
2016-11-20T08:40:34.069Z,25.79
2016-11-20T08:41:35.225Z,25.79
2016-11-20T08:42:34.132Z,25.79
2016-11-20T08:43:34.992Z,25.89
2016-11-20T08:45:34.416Z,25.98
2016-11-20T08:46:34.421Z,25.98
2016-11-20T08:47:34.478Z,25.98
2016-11-20T08:48:34.482Z,25.89
2016-11-20T08:49:34.177Z,25.7
2016-11-20T08:50:34.446Z,25.31
2016-11-20T08:51:34.454Z,25.4
2016-11-20T08:52:34.146Z,25.31
2016-11-20T08:53:34.516Z,25.4
2016-11-20T08:54:34.473Z,25.4
2016-11-20T08:55:34.479Z,25.31
2016-11-20T08:56:34.174Z,25.6
2016-11-20T08:57:34.237Z,25.31
2016-11-20T08:58:34.502Z,25.31
2016-11-20T08:59:34.557Z,25.21
2016-11-20T09:00:34.522Z,25.4
2016-11-20T09:01:34.519Z,25.7
2016-11-20T09:02:34.212Z,25.31
2016-11-20T09:03:34.571Z,25.5
2016-11-20T09:04:34.312Z,25.31
2016-11-20T09:05:34.238Z,25.21
2016-11-20T09:06:34.600Z,25.21
2016-11-20T09:07:34.559Z,25.31
2016-11-20T09:08:34.567Z,25.02
2016-11-20T09:09:34.572Z,25.31
2016-11-20T09:10:34.577Z,25.31
2016-11-20T09:11:34.586Z,25.12
2016-11-20T09:12:34.592Z,25.4
2016-11-20T09:13:34.287Z,25.31
2016-11-20T09:14:35.344Z,25.21
2016-11-20T09:15:34.613Z,25.31
2016-11-20T09:16:34.620Z,25.5
2016-11-20T09:17:34.410Z,25.12
2016-11-20T09:18:34.631Z,25.12
2016-11-20T09:19:34.327Z,25.4
2016-11-20T09:20:34.648Z,25.12
2016-11-20T09:21:34.389Z,25.31
2016-11-20T09:22:34.404Z,25.5
2016-11-20T09:23:34.665Z,25.5
2016-11-20T09:24:34.671Z,25.6
2016-11-20T09:25:34.370Z,25.4
2016-11-20T09:26:34.738Z,25.4
2016-11-20T09:27:35.529Z,25.4
2016-11-20T09:28:34.698Z,25.4
2016-11-20T09:29:34.781Z,25.6
2016-11-20T09:30:34.763Z,25.98
2016-11-20T09:31:34.455Z,25.6
2016-11-20T09:32:34.872Z,25.5
2016-11-20T09:33:34.427Z,25.4
2016-11-20T09:34:34.428Z,25.89
2016-11-20T09:35:34.431Z,25.7
2016-11-20T09:36:34.751Z,25.6
2016-11-20T09:37:34.448Z,25.89
2016-11-20T09:38:34.768Z,25.89
2016-11-20T09:39:34.460Z,25.89
2016-11-20T09:40:34.786Z,25.98
2016-11-20T09:41:34.521Z,25.89
2016-11-20T09:42:34.581Z,25.7
2016-11-20T09:43:34.487Z,25.7
2016-11-20T09:44:34.857Z,25.7
2016-11-20T09:45:34.500Z,25.79
2016-11-20T09:46:34.818Z,25.79
2016-11-20T09:47:34.661Z,25.98
2016-11-20T09:48:34.520Z,25.79
2016-11-20T09:49:34.840Z,25.98
2016-11-20T09:50:34.846Z,26.08
2016-11-20T09:51:34.539Z,25.79
2016-11-20T09:52:34.547Z,25.98
2016-11-20T09:53:34.551Z,25.7
2016-11-20T09:54:34.922Z,26.08
2016-11-20T09:55:34.565Z,25.89
2016-11-20T09:56:34.621Z,25.89
2016-11-20T09:57:34.892Z,25.97
2016-11-20T09:58:34.986Z,25.87
2016-11-20T09:59:34.592Z,26.07
2016-11-20T10:00:34.699Z,26.17
2016-11-20T10:01:34.609Z,26.17
2016-11-20T10:02:34.610Z,25.98
2016-11-20T10:03:34.617Z,26.07
2016-11-20T10:04:34.938Z,26.17
2016-11-20T10:05:34.631Z,26.07
2016-11-20T10:06:34.643Z,26.17
2016-11-20T10:07:34.962Z,26.17
2016-11-20T10:08:34.963Z,26.17
2016-11-20T10:09:34.713Z,26.17
2016-11-20T10:10:34.980Z,26.26
2016-11-20T10:11:35.887Z,26.26
2016-11-20T10:12:34.993Z,26.35
2016-11-20T10:13:34.998Z,26.17
2016-11-20T10:14:34.693Z,26.35
2016-11-20T10:15:35.011Z,26.35
2016-11-20T10:16:35.020Z,26.26
2016-11-20T10:17:34.713Z,26.65
2016-11-20T10:18:35.031Z,26.17
2016-11-20T10:19:35.072Z,26.35
2016-11-20T10:20:34.732Z,26.26
2016-11-20T10:21:35.054Z,26.17
2016-11-20T10:22:34.749Z,26.35
2016-11-20T10:23:34.752Z,26.35
2016-11-20T10:24:35.123Z,26.35
2016-11-20T10:25:34.766Z,26.17
2016-11-20T10:26:34.774Z,26.35
2016-11-20T10:27:35.091Z,26.26
2016-11-20T10:28:34.786Z,26.26
2016-11-20T10:29:34.794Z,26.35
2016-11-20T10:30:34.800Z,26.55
2016-11-20T10:31:35.671Z,26.55
2016-11-20T10:32:35.129Z,26.45
2016-11-20T10:33:35.184Z,26.65
2016-11-20T10:34:35.191Z,26.65
2016-11-20T10:35:34.836Z,26.55
2016-11-20T10:36:34.839Z,26.55
2016-11-20T10:37:34.844Z,26.45
2016-11-20T10:38:35.165Z,26.65
2016-11-20T10:39:35.219Z,26.75
2016-11-20T10:40:34.868Z,26.55
2016-11-20T10:41:35.277Z,27.03
2016-11-20T10:42:35.441Z,26.65
2016-11-20T10:43:35.200Z,26.73
2016-11-20T10:44:35.208Z,26.64
2016-11-20T10:45:34.897Z,26.64
2016-11-20T10:46:35.221Z,26.75
2016-11-20T10:47:35.224Z,26.73
2016-11-20T10:48:35.287Z,26.73
2016-11-20T10:49:34.925Z,26.73
2016-11-20T10:50:35.305Z,26.73
2016-11-20T10:51:34.940Z,26.92
2016-11-20T10:52:35.259Z,26.82
2016-11-20T10:53:35.102Z,26.82
2016-11-20T10:54:34.960Z,26.82
2016-11-20T10:55:36.252Z,26.92
2016-11-20T10:56:35.284Z,27.31
2016-11-20T10:57:35.635Z,26.92
2016-11-20T10:58:35.352Z,26.73
2016-11-20T10:59:35.305Z,26.82
2016-11-20T11:00:35.048Z,26.82
2016-11-20T11:01:35.006Z,26.82
2016-11-20T11:02:35.328Z,26.92
2016-11-20T11:03:35.332Z,27.02
2016-11-20T11:04:35.078Z,27.31
2016-11-20T11:05:35.033Z,27.31
2016-11-20T11:06:35.089Z,27.22
2016-11-20T11:07:35.361Z,27.22
2016-11-20T11:08:35.467Z,27.22
2016-11-20T11:09:35.374Z,27.12
2016-11-20T11:10:35.380Z,27.31
2016-11-20T11:11:35.074Z,27.02
2016-11-20T11:12:35.134Z,27.22
2016-11-20T11:13:35.088Z,27.22
2016-11-20T11:14:35.406Z,27.22
2016-11-20T11:15:35.151Z,27.6
2016-11-20T11:16:35.107Z,27.6
2016-11-20T11:17:36.379Z,27.6
2016-11-20T11:18:35.122Z,27.31
2016-11-20T11:19:35.180Z,27.4
2016-11-20T11:20:35.446Z,27.5
2016-11-20T11:21:35.142Z,27.5
2016-11-20T11:22:35.462Z,27.6
2016-11-20T11:23:35.210Z,27.7
2016-11-20T11:24:35.477Z,27.6
2016-11-20T11:25:35.170Z,27.6
2016-11-20T11:26:35.226Z,27.6
2016-11-20T11:27:35.499Z,27.7
2016-11-20T11:28:36.051Z,27.7
2016-11-20T11:29:35.198Z,27.7
2016-11-20T11:30:35.519Z,27.12
2016-11-20T11:31:35.524Z,27.22
2016-11-20T11:32:35.220Z,27.59
2016-11-20T11:33:35.226Z,27.01
2016-11-20T11:34:35.230Z,27.02
2016-11-20T11:35:35.288Z,27.78
2016-11-20T11:36:35.248Z,27.6
2016-11-20T11:37:35.614Z,27.49
2016-11-20T11:38:35.571Z,27.7
2016-11-20T11:39:35.513Z,27.87
2016-11-20T11:40:35.581Z,27.97
2016-11-20T11:41:35.327Z,27.39
2016-11-20T11:42:35.597Z,27.22
2016-11-20T11:43:35.940Z,27.78
2016-11-20T11:44:35.610Z,27.87
2016-11-20T11:45:35.357Z,27.22
2016-11-20T11:46:35.623Z,27.22
2016-11-20T11:47:35.319Z,27.2
2016-11-20T11:48:35.374Z,27.87
2016-11-20T11:49:35.643Z,27.7
2016-11-20T11:50:35.753Z,27.8
2016-11-20T11:51:35.710Z,27.8
2016-11-20T11:52:35.667Z,27.68
2016-11-20T11:53:35.671Z,27.49
2016-11-20T11:54:35.928Z,27.6
2016-11-20T11:55:35.734Z,27.8
2016-11-20T11:56:35.382Z,27.89
2016-11-20T11:57:35.386Z,27.8
2016-11-20T11:58:35.707Z,27.68
2016-11-20T11:59:35.710Z,27.68
2016-11-20T12:00:35.766Z,27.87
2016-11-20T12:01:35.745Z,27.97
2016-11-20T12:02:35.420Z,28.16
2016-11-20T12:03:36.690Z,27.97
2016-11-20T12:04:35.431Z,28.07
2016-11-20T12:05:35.755Z,28.07
2016-11-20T12:06:35.758Z,28.16
2016-11-20T12:07:35.772Z,28.07
2016-11-20T12:08:35.776Z,28.07
2016-11-20T12:09:35.466Z,28.16
2016-11-20T12:10:35.484Z,28.26
2016-11-20T12:11:35.793Z,28.26
2016-11-20T12:12:35.487Z,28.36
2016-11-20T12:13:35.592Z,28.07
2016-11-20T12:14:35.502Z,28.16
2016-11-20T12:15:35.817Z,28.16
2016-11-20T12:16:35.875Z,27.97
2016-11-20T12:17:35.864Z,28.07
2016-11-20T12:18:35.526Z,28.07
2016-11-20T12:19:35.946Z,27.97
2016-11-20T12:20:35.852Z,27.97
2016-11-20T12:21:35.859Z,28.07
2016-11-20T12:22:35.864Z,27.97
2016-11-20T12:23:35.871Z,28.07
2016-11-20T12:24:35.616Z,27.87
2016-11-20T12:25:36.535Z,27.97
2016-11-20T12:26:35.577Z,27.87
2016-11-20T12:27:35.950Z,27.68
2016-11-20T12:28:35.591Z,27.68
2016-11-20T12:29:36.712Z,28.36
2016-11-20T12:30:35.922Z,28.45
2016-11-20T12:31:35.663Z,28.36
2016-11-20T12:32:35.983Z,28.45
2016-11-20T12:33:35.625Z,28.45
2016-11-20T12:34:35.948Z,28.45
2016-11-20T12:35:35.950Z,28.55
2016-11-20T12:36:36.013Z,28.45
2016-11-20T12:37:36.013Z,28.64
2016-11-20T12:38:36.020Z,28.55
2016-11-20T12:39:36.025Z,28.74
2016-11-20T12:40:36.789Z,28.74
2016-11-20T12:41:35.991Z,28.64
2016-11-20T12:42:36.046Z,28.74
2016-11-20T12:43:35.689Z,28.74
2016-11-20T12:44:35.745Z,28.84
2016-11-20T12:45:35.709Z,28.84
2016-11-20T12:46:36.023Z,28.74
2016-11-20T12:47:35.767Z,28.74
2016-11-20T12:48:35.725Z,28.84
2016-11-20T12:49:36.051Z,28.94
2016-11-20T12:50:35.788Z,28.74
2016-11-20T12:51:37.061Z,28.74
2016-11-20T12:52:36.064Z,28.84
2016-11-20T12:53:35.806Z,28.84
2016-11-20T12:54:36.125Z,28.94
2016-11-20T12:55:35.816Z,28.94
2016-11-20T12:56:36.097Z,28.84